createdAt,value
2018-07-30T00:00:28.448Z,0.00
2018-07-30T00:01:28.432Z,0.00
2018-07-30T00:02:28.508Z,0.00
2018-07-30T00:03:28.531Z,0.00
2018-07-30T00:04:28.583Z,0.00
2018-07-30T00:05:28.775Z,0.00
2018-07-30T00:06:28.710Z,0.00
2018-07-30T00:07:28.736Z,0.00
2018-07-30T00:08:28.818Z,0.00
2018-07-30T00:09:28.811Z,0.00
2018-07-30T00:10:28.888Z,0.00
2018-07-30T00:11:28.975Z,0.00
2018-07-30T00:12:28.985Z,0.00
2018-07-30T00:13:29.040Z,0.00
2018-07-30T00:14:29.061Z,0.00
2018-07-30T00:15:29.121Z,0.00
2018-07-30T00:16:29.177Z,0.00
2018-07-30T00:17:29.212Z,0.00
2018-07-30T00:18:29.276Z,0.00
2018-07-30T00:19:29.305Z,0.00
2018-07-30T00:20:29.370Z,0.00
2018-07-30T00:21:29.462Z,0.00
2018-07-30T00:22:29.469Z,0.00
2018-07-30T00:23:29.513Z,0.00
2018-07-30T00:24:29.530Z,0.00
2018-07-30T00:25:29.576Z,0.00
2018-07-30T00:26:29.653Z,0.00
2018-07-30T00:27:29.715Z,0.00
2018-07-30T00:28:29.753Z,0.00
2018-07-30T00:29:29.811Z,0.00
2018-07-30T00:30:29.868Z,0.00
2018-07-30T00:31:29.940Z,0.00
2018-07-30T00:32:29.938Z,0.00
2018-07-30T00:33:30.009Z,0.00
2018-07-30T00:34:30.028Z,0.00
2018-07-30T00:35:30.082Z,0.00
2018-07-30T00:36:30.112Z,0.00
2018-07-30T00:37:30.199Z,0.00
2018-07-30T00:38:30.196Z,0.00
2018-07-30T00:39:30.248Z,0.00
2018-07-30T00:40:30.311Z,0.00
2018-07-30T00:41:30.382Z,0.00
2018-07-30T00:42:30.413Z,0.00
2018-07-30T00:43:30.448Z,0.00
2018-07-30T00:44:30.497Z,0.00
2018-07-30T00:45:30.564Z,0.00
2018-07-30T00:46:30.582Z,0.00
2018-07-30T00:47:30.638Z,0.00
2018-07-30T00:48:30.722Z,0.00
2018-07-30T00:49:30.734Z,0.00
2018-07-30T00:50:30.778Z,0.00
2018-07-30T00:51:30.829Z,0.00
2018-07-30T00:52:30.895Z,0.00
2018-07-30T00:53:30.917Z,0.00
2018-07-30T00:54:30.990Z,0.00
2018-07-30T00:55:31.023Z,0.00
2018-07-30T00:56:31.094Z,0.00
2018-07-30T00:57:31.116Z,0.00
2018-07-30T00:58:31.146Z,0.00
2018-07-30T00:59:31.207Z,0.00
2018-07-30T01:00:31.253Z,0.00
2018-07-30T01:01:31.299Z,0.00
2018-07-30T01:02:31.361Z,0.00
2018-07-30T01:03:31.443Z,0.00
2018-07-30T01:04:31.466Z,0.00
2018-07-30T01:05:31.483Z,0.00
2018-07-30T01:06:31.546Z,0.00
2018-07-30T01:07:31.587Z,0.00
2018-07-30T01:08:31.621Z,0.00
2018-07-30T01:09:31.693Z,0.00
2018-07-30T01:10:31.716Z,0.00
2018-07-30T01:11:31.810Z,0.00
2018-07-30T01:12:31.849Z,0.00
2018-07-30T01:13:31.856Z,0.00
2018-07-30T01:14:31.946Z,0.00
2018-07-30T01:15:31.977Z,0.00
2018-07-30T01:16:32.068Z,0.00
2018-07-30T01:17:32.042Z,0.00
2018-07-30T01:18:32.109Z,0.00
2018-07-30T01:19:32.148Z,0.00
2018-07-30T01:20:32.201Z,0.00
2018-07-30T01:21:32.293Z,0.00
2018-07-30T01:22:32.342Z,0.00
2018-07-30T01:23:32.357Z,0.00
2018-07-30T01:24:32.396Z,0.00
2018-07-30T01:25:32.473Z,0.00
2018-07-30T01:26:32.461Z,0.00
2018-07-30T01:27:32.518Z,0.00
2018-07-30T01:28:32.572Z,0.00
2018-07-30T01:29:32.640Z,0.00
2018-07-30T01:30:32.710Z,0.00
2018-07-30T01:31:32.757Z,0.00
2018-07-30T01:32:32.773Z,0.00
2018-07-30T01:33:32.826Z,0.00
2018-07-30T01:34:32.869Z,0.00
2018-07-30T01:35:32.889Z,0.00
2018-07-30T01:36:32.946Z,0.00
2018-07-30T01:37:33.026Z,0.00
2018-07-30T01:38:33.026Z,0.00
2018-07-30T01:39:33.113Z,0.00
2018-07-30T01:40:33.138Z,0.00
2018-07-30T01:41:33.188Z,0.00
2018-07-30T01:42:33.261Z,0.00
2018-07-30T01:43:33.296Z,0.00
2018-07-30T01:44:33.319Z,0.00
2018-07-30T01:45:33.393Z,0.00
2018-07-30T01:46:33.406Z,0.00
2018-07-30T01:47:33.473Z,0.00
2018-07-30T01:48:33.684Z,0.00
2018-07-30T01:49:33.545Z,0.00
2018-07-30T01:50:33.599Z,0.00
2018-07-30T01:51:33.653Z,0.00
2018-07-30T01:52:33.704Z,0.00
2018-07-30T01:53:33.803Z,0.00
2018-07-30T01:54:33.792Z,0.00
2018-07-30T01:55:33.871Z,0.00
2018-07-30T01:56:33.892Z,0.00
2018-07-30T01:57:33.949Z,0.00
2018-07-30T01:58:33.970Z,0.00
2018-07-30T01:59:34.033Z,0.00
2018-07-30T02:00:34.053Z,0.00
2018-07-30T02:01:34.205Z,0.00
2018-07-30T02:02:34.168Z,0.00
2018-07-30T02:03:34.217Z,0.00
2018-07-30T02:04:34.243Z,0.00
2018-07-30T02:05:34.305Z,0.00
2018-07-30T02:06:34.369Z,0.00
2018-07-30T02:07:34.381Z,0.00
2018-07-30T02:08:34.445Z,0.00
2018-07-30T02:09:34.589Z,0.00
2018-07-30T02:10:34.612Z,0.00
2018-07-30T02:11:34.595Z,0.00
2018-07-30T02:12:34.627Z,0.00
2018-07-30T02:13:34.694Z,0.00
2018-07-30T02:14:34.736Z,0.00
2018-07-30T02:15:34.797Z,0.00
2018-07-30T02:16:34.833Z,0.00
2018-07-30T02:17:34.857Z,0.00
2018-07-30T02:18:34.902Z,0.00
2018-07-30T02:19:34.970Z,0.00
2018-07-30T02:20:35.009Z,0.00
2018-07-30T02:21:35.168Z,0.00
2018-07-30T02:22:35.108Z,0.00
2018-07-30T02:23:35.139Z,0.00
2018-07-30T02:24:35.212Z,0.00
2018-07-30T02:25:35.224Z,0.00
2018-07-30T02:26:35.290Z,0.00
2018-07-30T02:27:35.420Z,0.00
2018-07-30T02:28:35.372Z,0.00
2018-07-30T02:29:35.476Z,0.00
2018-07-30T02:30:35.533Z,0.00
2018-07-30T02:31:35.584Z,0.00
2018-07-30T02:32:35.639Z,0.00
2018-07-30T02:33:35.614Z,0.00
2018-07-30T02:34:35.641Z,0.00
2018-07-30T02:35:35.709Z,0.00
2018-07-30T02:36:35.756Z,0.00
2018-07-30T02:37:35.812Z,0.00
2018-07-30T02:38:35.836Z,0.00
2018-07-30T02:39:35.898Z,0.00
2018-07-30T02:40:35.937Z,0.00
2018-07-30T02:41:35.957Z,0.00
2018-07-30T02:42:36.024Z,0.00
2018-07-30T02:43:36.104Z,0.00
2018-07-30T02:44:36.111Z,0.00
2018-07-30T02:45:36.177Z,0.00
2018-07-30T02:46:36.223Z,0.00
2018-07-30T02:47:36.247Z,0.00
2018-07-30T02:48:36.308Z,0.00
2018-07-30T02:49:36.389Z,0.00
2018-07-30T02:50:36.388Z,0.00
2018-07-30T02:51:36.428Z,0.00
2018-07-30T02:52:36.498Z,0.00
2018-07-30T02:53:36.520Z,0.00
2018-07-30T02:54:36.564Z,0.00
2018-07-30T02:55:36.649Z,0.00
2018-07-30T02:56:36.711Z,0.00
2018-07-30T02:57:36.782Z,0.00
2018-07-30T02:58:36.756Z,0.00
2018-07-30T02:59:36.796Z,0.00
2018-07-30T03:00:36.872Z,0.00
2018-07-30T03:01:36.879Z,0.00
2018-07-30T03:02:36.959Z,0.00
2018-07-30T03:03:36.983Z,0.00
2018-07-30T03:04:37.015Z,0.00
2018-07-30T03:05:37.094Z,0.00
2018-07-30T03:06:37.133Z,0.00
2018-07-30T03:07:37.207Z,0.00
2018-07-30T03:08:37.228Z,0.00
2018-07-30T03:09:37.271Z,0.00
2018-07-30T03:10:37.320Z,0.00
2018-07-30T03:11:37.401Z,0.00
2018-07-30T03:12:37.411Z,0.00
2018-07-30T03:13:37.492Z,0.00
2018-07-30T03:14:37.494Z,0.00
2018-07-30T03:15:37.560Z,0.00
2018-07-30T03:16:37.606Z,0.00
2018-07-30T03:17:37.666Z,0.00
2018-07-30T03:18:37.686Z,0.00
2018-07-30T03:19:37.734Z,0.00
2018-07-30T03:20:37.804Z,0.00
2018-07-30T03:21:37.823Z,0.00
2018-07-30T03:22:37.860Z,0.00
2018-07-30T03:23:37.923Z,0.00
2018-07-30T03:24:37.965Z,0.00
2018-07-30T03:25:38.012Z,0.00
2018-07-30T03:26:38.033Z,0.00
2018-07-30T03:27:38.083Z,0.00
2018-07-30T03:28:38.190Z,0.00
2018-07-30T03:29:38.189Z,0.00
2018-07-30T03:30:38.207Z,0.00
2018-07-30T03:31:38.272Z,0.00
2018-07-30T03:32:38.304Z,0.00
2018-07-30T03:33:38.371Z,0.00
2018-07-30T03:34:38.417Z,0.00
2018-07-30T03:35:38.467Z,0.00
2018-07-30T03:36:38.668Z,0.00
2018-07-30T03:37:38.571Z,0.00
2018-07-30T03:38:38.599Z,0.00
2018-07-30T03:39:38.667Z,0.00
2018-07-30T03:40:38.698Z,0.00
2018-07-30T03:41:38.731Z,0.00
2018-07-30T03:42:38.765Z,0.00
2018-07-30T03:43:38.846Z,0.00
2018-07-30T03:44:38.918Z,0.00
2018-07-30T03:45:38.915Z,0.00
2018-07-30T03:46:38.965Z,0.00
2018-07-30T03:47:39.038Z,0.00
2018-07-30T03:48:39.059Z,0.00
2018-07-30T03:49:39.117Z,0.00
2018-07-30T03:50:39.142Z,0.00
2018-07-30T03:51:39.168Z,0.00
2018-07-30T03:52:39.238Z,0.00
2018-07-30T03:53:39.278Z,0.00
2018-07-30T03:54:39.385Z,0.00
2018-07-30T03:55:39.371Z,0.00
2018-07-30T03:56:39.405Z,0.00
2018-07-30T03:57:39.708Z,0.00
2018-07-30T03:58:39.526Z,0.00
2018-07-30T03:59:39.542Z,0.00
2018-07-30T04:00:39.607Z,0.00
2018-07-30T04:01:39.644Z,0.00
2018-07-30T04:02:39.693Z,0.00
2018-07-30T04:03:39.782Z,0.00
2018-07-30T04:04:39.769Z,0.00
2018-07-30T04:05:39.832Z,0.00
2018-07-30T04:06:39.849Z,0.00
2018-07-30T04:07:39.926Z,0.00
2018-07-30T04:08:40.197Z,0.00
2018-07-30T04:09:40.215Z,0.00
2018-07-30T04:10:40.056Z,0.00
2018-07-30T04:11:40.131Z,0.00
2018-07-30T04:12:40.250Z,0.00
2018-07-30T04:13:40.194Z,0.00
2018-07-30T04:14:40.264Z,0.00
2018-07-30T04:15:40.322Z,0.00
2018-07-30T04:16:40.321Z,0.00
2018-07-30T04:17:40.382Z,0.00
2018-07-30T04:18:40.438Z,0.00
2018-07-30T04:19:40.625Z,0.00
2018-07-30T04:20:40.511Z,0.00
2018-07-30T04:21:40.584Z,0.00
2018-07-30T04:22:40.617Z,0.00
2018-07-30T04:23:40.627Z,0.00
2018-07-30T04:24:40.701Z,0.00
2018-07-30T04:25:40.744Z,0.00
2018-07-30T04:26:40.778Z,0.00
2018-07-30T04:27:40.819Z,0.00
2018-07-30T04:28:40.885Z,0.00
2018-07-30T04:29:40.967Z,0.00
2018-07-30T04:30:41.113Z,0.00
2018-07-30T04:31:40.991Z,0.00
2018-07-30T04:32:41.068Z,0.00
2018-07-30T04:33:41.125Z,0.00
2018-07-30T04:34:42.384Z,0.00
2018-07-30T04:35:41.201Z,0.00
2018-07-30T04:36:41.503Z,0.00
2018-07-30T04:37:41.295Z,0.00
2018-07-30T04:38:41.327Z,0.00
2018-07-30T04:39:41.357Z,0.00
2018-07-30T04:40:41.424Z,0.00
2018-07-30T04:42:41.516Z,0.00
2018-07-30T04:43:41.607Z,0.00
2018-07-30T04:44:41.605Z,0.00
2018-07-30T04:45:41.660Z,0.00
2018-07-30T04:46:41.709Z,0.00
2018-07-30T04:47:41.990Z,0.00
2018-07-30T04:48:41.806Z,0.00
2018-07-30T04:49:41.866Z,0.00
2018-07-30T04:50:41.887Z,0.00
2018-07-30T04:51:41.923Z,0.00
2018-07-30T04:52:41.986Z,0.00
2018-07-30T04:53:42.191Z,0.00
2018-07-30T04:54:42.092Z,0.00
2018-07-30T04:55:42.096Z,0.00
2018-07-30T04:56:42.154Z,0.00
2018-07-30T04:57:42.213Z,0.00
2018-07-30T04:58:42.312Z,0.00
2018-07-30T04:59:42.304Z,0.00
2018-07-30T05:00:42.338Z,0.00
2018-07-30T05:01:42.401Z,0.00
2018-07-30T05:02:42.439Z,0.00
2018-07-30T05:03:42.733Z,0.00
2018-07-30T05:04:42.564Z,0.00
2018-07-30T05:05:42.569Z,0.00
2018-07-30T05:06:42.633Z,0.00
2018-07-30T05:07:42.654Z,0.00
2018-07-30T05:08:42.904Z,0.00
2018-07-30T05:09:42.755Z,0.00
2018-07-30T05:10:42.783Z,0.00
2018-07-30T05:11:42.856Z,0.00
2018-07-30T05:12:42.916Z,0.00
2018-07-30T05:13:42.931Z,0.00
2018-07-30T05:14:43.199Z,0.00
2018-07-30T05:15:43.028Z,0.00
2018-07-30T05:16:43.085Z,0.00
2018-07-30T05:17:43.110Z,0.00
2018-07-30T05:18:43.161Z,0.00
2018-07-30T05:19:43.232Z,0.00
2018-07-30T05:20:43.495Z,0.00
2018-07-30T05:21:43.293Z,0.00
2018-07-30T05:22:43.378Z,0.00
2018-07-30T05:23:43.388Z,0.00
2018-07-30T05:24:43.441Z,0.00
2018-07-30T05:25:43.507Z,0.00
2018-07-30T05:26:43.668Z,0.00
2018-07-30T05:27:43.583Z,0.00
2018-07-30T05:28:43.627Z,0.00
2018-07-30T05:29:43.674Z,0.00
2018-07-30T05:30:43.680Z,0.00
2018-07-30T05:31:43.827Z,0.00
2018-07-30T05:32:43.988Z,0.00
2018-07-30T05:33:43.847Z,0.00
2018-07-30T05:34:43.892Z,0.00
2018-07-30T05:35:43.943Z,0.00
2018-07-30T05:36:44.012Z,0.00
2018-07-30T05:37:44.262Z,0.00
2018-07-30T05:38:44.074Z,0.00
2018-07-30T05:39:44.103Z,0.00
2018-07-30T05:40:44.144Z,0.00
2018-07-30T05:41:44.228Z,0.00
2018-07-30T05:42:44.280Z,0.00
2018-07-30T05:43:44.509Z,0.00
2018-07-30T05:44:44.349Z,0.00
2018-07-30T05:45:44.365Z,0.00
2018-07-30T05:46:44.440Z,0.00
2018-07-30T05:47:44.492Z,0.00
2018-07-30T05:48:44.521Z,0.00
2018-07-30T05:49:44.746Z,0.00
2018-07-30T05:50:44.600Z,0.00
2018-07-30T05:51:44.664Z,0.00
2018-07-30T05:52:44.717Z,0.00
2018-07-30T05:53:44.742Z,0.00
2018-07-30T05:54:44.781Z,0.00
2018-07-30T05:55:45.111Z,0.00
2018-07-30T05:56:44.893Z,0.00
2018-07-30T05:57:44.921Z,0.00
2018-07-30T05:58:44.970Z,0.00
2018-07-30T05:59:45.068Z,0.00
2018-07-30T06:00:45.082Z,0.00
2018-07-30T06:01:45.305Z,0.00
2018-07-30T06:02:45.162Z,0.00
2018-07-30T06:03:45.236Z,0.00
2018-07-30T06:04:45.255Z,0.00
2018-07-30T06:05:45.300Z,0.00
2018-07-30T06:06:45.328Z,0.00
2018-07-30T06:07:45.596Z,0.00
2018-07-30T06:08:45.426Z,0.00
2018-07-30T06:09:45.576Z,0.00
2018-07-30T06:10:45.506Z,0.00
2018-07-30T06:11:45.561Z,0.00
2018-07-30T06:12:45.628Z,0.00
2018-07-30T06:13:45.807Z,0.00
2018-07-30T06:14:45.719Z,0.00
2018-07-30T06:15:45.755Z,0.00
2018-07-30T06:16:45.779Z,0.00
2018-07-30T06:17:45.828Z,0.00
2018-07-30T06:18:45.890Z,0.00
2018-07-30T06:19:45.938Z,0.00
2018-07-30T06:20:46.183Z,0.00
2018-07-30T06:21:46.006Z,0.00
2018-07-30T06:22:46.055Z,0.00
2018-07-30T06:23:46.109Z,0.00
2018-07-30T06:24:46.145Z,0.00
2018-07-30T06:25:46.344Z,0.00
2018-07-30T06:26:46.227Z,0.00
2018-07-30T06:27:46.277Z,0.00
2018-07-30T06:28:46.338Z,0.00
2018-07-30T06:29:46.381Z,0.00
2018-07-30T06:30:46.426Z,0.00
2018-07-30T06:31:46.721Z,0.00
2018-07-30T06:32:46.504Z,0.00
2018-07-30T06:33:46.536Z,0.00
2018-07-30T06:34:46.622Z,0.00
2018-07-30T06:35:46.653Z,0.00
2018-07-30T06:36:46.855Z,0.00
2018-07-30T06:37:46.744Z,0.00
2018-07-30T06:38:46.818Z,0.00
2018-07-30T06:39:46.820Z,0.00
2018-07-30T06:40:46.879Z,0.00
2018-07-30T06:41:46.904Z,0.00
2018-07-30T06:42:46.944Z,0.00
2018-07-30T06:43:47.006Z,0.00
2018-07-30T06:44:47.055Z,0.00
2018-07-30T06:45:47.120Z,0.00
2018-07-30T06:46:47.352Z,0.00
2018-07-30T06:47:47.414Z,0.00
2018-07-30T06:48:47.238Z,0.00
2018-07-30T06:49:47.262Z,0.00
2018-07-30T06:50:47.323Z,0.00
2018-07-30T06:51:47.364Z,0.00
2018-07-30T06:52:49.081Z,0.00
2018-07-30T06:53:47.499Z,0.00
2018-07-30T06:54:47.504Z,0.00
2018-07-30T06:55:47.537Z,0.00
2018-07-30T06:56:47.586Z,0.00
2018-07-30T06:57:47.661Z,0.00
2018-07-30T06:58:47.878Z,0.00
2018-07-30T06:59:47.740Z,0.00
2018-07-30T07:00:47.783Z,0.00
2018-07-30T07:01:47.822Z,0.00
2018-07-30T07:03:48.090Z,0.00
2018-07-30T07:04:47.936Z,0.00
2018-07-30T07:05:48.043Z,0.00
2018-07-30T07:06:48.053Z,0.00
2018-07-30T07:07:48.075Z,0.00
2018-07-30T07:08:48.142Z,0.00
2018-07-30T07:09:48.386Z,0.00
2018-07-30T07:10:48.271Z,0.00
2018-07-30T07:11:48.246Z,0.00
2018-07-30T07:12:48.318Z,0.00
2018-07-30T07:13:48.349Z,0.00
2018-07-30T07:14:48.533Z,0.00
2018-07-30T07:15:48.427Z,0.00
2018-07-30T07:16:48.553Z,0.00
2018-07-30T07:17:48.555Z,0.00
2018-07-30T07:18:48.580Z,0.00
2018-07-30T07:19:48.611Z,0.00
2018-07-30T07:20:48.950Z,0.00
2018-07-30T07:21:48.760Z,0.00
2018-07-30T07:22:48.757Z,0.00
2018-07-30T07:23:48.845Z,0.00
2018-07-30T07:24:48.834Z,0.00
2018-07-30T07:25:49.089Z,0.00
2018-07-30T07:26:48.898Z,0.00
2018-07-30T07:27:48.971Z,0.00
2018-07-30T07:28:49.015Z,0.00
2018-07-30T07:29:49.046Z,0.00
2018-07-30T07:30:49.128Z,0.00
2018-07-30T07:31:49.370Z,0.00
2018-07-30T07:32:49.193Z,0.00
2018-07-30T07:33:49.248Z,0.00
2018-07-30T07:34:49.349Z,0.00
2018-07-30T07:35:49.341Z,0.00
2018-07-30T07:36:49.380Z,0.00
2018-07-30T07:37:49.426Z,0.00
2018-07-30T07:38:49.521Z,0.00
2018-07-30T07:39:49.524Z,0.00
2018-07-30T07:40:49.543Z,0.00
2018-07-30T07:41:49.730Z,0.00
2018-07-30T07:42:49.631Z,0.00
2018-07-30T07:43:49.676Z,0.00
2018-07-30T07:44:49.787Z,0.00
2018-07-30T07:45:49.772Z,0.00
2018-07-30T07:46:49.837Z,0.00
2018-07-30T07:47:50.146Z,0.00
2018-07-30T07:48:49.902Z,0.00
2018-07-30T07:49:50.008Z,0.00
2018-07-30T07:50:50.244Z,0.00
2018-07-30T07:51:50.053Z,0.00
2018-07-30T07:52:50.247Z,0.00
2018-07-30T07:53:50.171Z,0.00
2018-07-30T07:54:50.200Z,0.00
2018-07-30T07:55:50.225Z,0.00
2018-07-30T07:56:50.265Z,0.00
2018-07-30T07:57:50.351Z,0.00
2018-07-30T07:58:50.374Z,0.00
2018-07-30T07:59:50.444Z,0.00
2018-07-30T08:00:50.442Z,0.00
2018-07-30T08:01:50.508Z,0.00
2018-07-30T08:02:50.739Z,0.00
2018-07-30T08:03:50.604Z,0.00
2018-07-30T08:04:50.606Z,0.00
2018-07-30T08:05:50.686Z,0.00
2018-07-30T08:06:50.783Z,0.00
2018-07-30T08:07:50.945Z,0.00
2018-07-30T08:08:50.817Z,0.00
2018-07-30T08:09:51.053Z,0.00
2018-07-30T08:10:50.923Z,0.00
2018-07-30T08:11:50.913Z,0.00
2018-07-30T08:12:50.970Z,0.00
2018-07-30T08:13:51.077Z,0.00
2018-07-30T08:14:51.041Z,0.00
2018-07-30T08:15:51.134Z,0.00
2018-07-30T08:16:51.153Z,0.00
2018-07-30T08:17:51.397Z,0.00
2018-07-30T08:18:51.242Z,0.00
2018-07-30T08:19:51.296Z,0.00
2018-07-30T08:20:51.360Z,0.00
2018-07-30T08:21:51.384Z,0.00
2018-07-30T08:22:51.488Z,0.00
2018-07-30T08:23:51.464Z,0.00
2018-07-30T08:25:51.596Z,0.00
2018-07-30T08:26:51.598Z,0.00
2018-07-30T08:27:51.838Z,0.00
2018-07-30T08:28:51.855Z,0.00
2018-07-30T08:29:51.731Z,0.00
2018-07-30T08:30:51.823Z,0.00
2018-07-30T08:31:51.814Z,0.00
2018-07-30T08:32:51.884Z,0.00
2018-07-30T08:33:51.935Z,0.00
2018-07-30T08:34:51.954Z,0.00
2018-07-30T08:35:52.058Z,0.00
2018-07-30T08:36:52.044Z,0.00
2018-07-30T08:37:52.159Z,0.00
2018-07-30T08:38:52.333Z,0.00
2018-07-30T08:39:52.186Z,0.00
2018-07-30T08:40:52.208Z,0.00
2018-07-30T08:41:52.252Z,0.00
2018-07-30T08:42:52.291Z,0.00
2018-07-30T08:43:52.579Z,0.00
2018-07-30T08:44:52.391Z,0.00
2018-07-30T08:45:52.465Z,0.00
2018-07-30T08:46:52.548Z,0.00
2018-07-30T08:47:52.548Z,0.00
2018-07-30T08:48:52.741Z,0.00
2018-07-30T08:49:52.817Z,0.00
2018-07-30T08:50:52.656Z,0.00
2018-07-30T08:51:52.754Z,0.00
2018-07-30T08:52:52.753Z,0.00
2018-07-30T08:53:52.803Z,0.00
2018-07-30T08:54:53.032Z,0.00
2018-07-30T08:55:52.904Z,0.00
2018-07-30T08:56:52.957Z,0.00
2018-07-30T08:57:52.988Z,0.00
2018-07-30T08:58:53.062Z,0.00
2018-07-30T08:59:53.056Z,0.00
2018-07-30T09:00:53.132Z,0.00
2018-07-30T09:01:53.371Z,0.00
2018-07-30T09:02:53.221Z,0.00
2018-07-30T09:03:53.240Z,0.00
2018-07-30T09:04:53.294Z,0.00
2018-07-30T09:05:53.342Z,0.00
2018-07-30T09:06:53.584Z,0.00
2018-07-30T09:07:53.412Z,0.00
2018-07-30T09:08:53.473Z,0.00
2018-07-30T09:09:53.525Z,0.00
2018-07-30T09:10:53.557Z,0.00
2018-07-30T09:11:53.584Z,0.00
2018-07-30T09:12:54.039Z,0.00
2018-07-30T09:13:53.713Z,0.00
2018-07-30T09:14:53.755Z,0.00
2018-07-30T09:15:53.828Z,0.00
2018-07-30T09:16:53.871Z,0.00
2018-07-30T09:17:53.848Z,4.00
2018-07-30T09:18:53.904Z,0.00
2018-07-30T09:19:53.974Z,4.00
2018-07-30T09:20:54.015Z,4.00
2018-07-30T09:21:54.040Z,4.00
2018-07-30T09:22:54.126Z,8.00
2018-07-30T09:23:54.336Z,8.00
2018-07-30T09:24:54.167Z,8.00
2018-07-30T09:25:54.223Z,16.00
2018-07-30T09:26:54.292Z,20.00
2018-07-30T09:27:54.280Z,24.00
2018-07-30T09:28:54.347Z,32.00
2018-07-30T09:29:54.360Z,44.00
2018-07-30T09:30:54.446Z,52.00
2018-07-30T09:31:54.474Z,64.00
2018-07-30T09:32:54.625Z,76.00
2018-07-30T09:33:54.808Z,96.00
2018-07-30T09:34:54.617Z,112.00
2018-07-30T09:35:54.643Z,136.00
2018-07-30T09:36:54.707Z,160.00
2018-07-30T09:37:54.736Z,184.00
2018-07-30T09:38:54.988Z,216.00
2018-07-30T09:39:54.824Z,248.00
2018-07-30T09:40:54.880Z,280.00
2018-07-30T09:41:54.883Z,324.00
2018-07-30T09:42:54.958Z,364.00
2018-07-30T09:43:54.983Z,408.00
2018-07-30T09:44:55.243Z,460.00
2018-07-30T09:45:55.075Z,516.00
2018-07-30T09:46:55.128Z,572.00
2018-07-30T09:47:55.169Z,636.00
2018-07-30T09:48:55.237Z,700.00
2018-07-30T09:49:55.574Z,772.00
2018-07-30T09:50:55.312Z,848.00
2018-07-30T09:51:55.351Z,928.00
2018-07-30T09:52:55.396Z,1012.00
2018-07-30T09:53:55.439Z,1100.00
2018-07-30T09:54:55.477Z,1188.00
2018-07-30T09:55:55.681Z,1288.00
2018-07-30T09:56:55.578Z,1388.00
2018-07-30T09:57:55.624Z,1492.00
2018-07-30T09:58:55.638Z,1600.00
2018-07-30T09:59:55.693Z,1708.00
2018-07-30T10:00:55.764Z,1824.00
2018-07-30T10:01:55.779Z,1944.00
2018-07-30T10:02:55.832Z,2060.00
2018-07-30T10:03:55.879Z,2180.00
2018-07-30T10:04:55.930Z,2304.00
2018-07-30T10:05:55.958Z,2424.00
2018-07-30T10:06:56.003Z,2544.00
2018-07-30T10:07:56.064Z,2680.00
2018-07-30T10:08:56.085Z,2816.00
2018-07-30T10:09:56.151Z,2964.00
2018-07-30T10:10:56.170Z,3100.00
2018-07-30T10:11:56.202Z,3244.00
2018-07-30T10:12:56.246Z,3368.00
2018-07-30T10:13:56.297Z,3504.00
2018-07-30T10:14:56.361Z,3640.00
2018-07-30T10:15:56.371Z,3788.00
2018-07-30T10:16:56.455Z,3952.00
2018-07-30T10:17:56.731Z,4128.00
2018-07-30T10:18:56.489Z,4304.00
2018-07-30T10:19:56.549Z,4488.00
2018-07-30T10:20:56.613Z,4664.00
2018-07-30T10:21:56.662Z,4820.00
2018-07-30T10:22:56.698Z,5008.00
2018-07-30T10:23:56.749Z,5204.00
2018-07-30T10:24:56.819Z,5404.00
2018-07-30T10:25:56.828Z,5628.00
2018-07-30T10:26:56.841Z,5884.00
2018-07-30T10:27:56.891Z,6132.00
2018-07-30T10:28:56.951Z,6356.00
2018-07-30T10:29:56.986Z,6588.00
2018-07-30T10:30:57.048Z,6808.00
2018-07-30T10:31:57.102Z,7288.00
2018-07-30T10:32:57.098Z,9268.00
2018-07-30T10:33:57.217Z,11764.00
2018-07-30T10:34:57.255Z,12344.00
2018-07-30T10:35:57.251Z,12752.00
2018-07-30T10:36:57.317Z,13268.00
2018-07-30T10:37:57.373Z,14176.00
2018-07-30T10:38:57.554Z,14656.00
2018-07-30T10:39:57.489Z,15584.00
2018-07-30T10:40:57.473Z,16096.00
2018-07-30T10:41:57.594Z,16000.00
2018-07-30T10:42:57.575Z,16288.00
2018-07-30T10:43:57.621Z,16864.00
2018-07-30T10:44:57.834Z,17632.00
2018-07-30T10:45:57.761Z,17472.00
2018-07-30T10:46:57.801Z,17280.00
2018-07-30T10:47:57.800Z,17888.00
2018-07-30T10:48:57.826Z,18400.00
2018-07-30T10:49:57.911Z,19552.00
2018-07-30T10:50:58.129Z,19808.00
2018-07-30T10:51:57.979Z,20704.00
2018-07-30T10:52:58.022Z,20736.00
2018-07-30T10:53:58.070Z,21280.00
2018-07-30T10:54:58.126Z,21888.00
2018-07-30T10:55:58.141Z,22336.00
2018-07-30T10:56:58.354Z,23456.00
2018-07-30T10:57:58.232Z,23296.00
2018-07-30T10:58:58.349Z,23520.00
2018-07-30T10:59:58.355Z,23520.00
2018-07-30T11:00:58.401Z,24736.00
2018-07-30T11:01:58.432Z,25120.00
2018-07-30T11:02:58.497Z,25248.00
2018-07-30T11:03:58.541Z,25792.00
2018-07-30T11:04:58.592Z,26528.00
2018-07-30T11:05:58.624Z,26368.00
2018-07-30T11:06:58.674Z,27424.00
2018-07-30T11:07:58.715Z,28864.00
2018-07-30T11:08:58.975Z,26656.00
2018-07-30T11:09:58.794Z,27456.00
2018-07-30T11:10:58.875Z,29120.00
2018-07-30T11:11:58.885Z,29248.00
2018-07-30T11:12:58.983Z,30048.00
2018-07-30T11:13:59.005Z,30496.00
2018-07-30T11:14:59.063Z,31456.00
2018-07-30T11:15:59.123Z,31616.00
2018-07-30T11:16:59.154Z,32832.00
2018-07-30T11:17:59.219Z,34112.00
2018-07-30T11:18:59.235Z,34464.00
2018-07-30T11:19:59.295Z,33664.00
2018-07-30T11:20:59.363Z,33440.00
2018-07-30T11:21:59.400Z,33120.00
2018-07-30T11:22:59.437Z,28576.00
2018-07-30T11:24:01.001Z,23776.00
2018-07-30T11:24:59.524Z,26176.00
2018-07-30T11:25:59.589Z,31232.00
2018-07-30T11:26:59.646Z,33568.00
2018-07-30T11:27:59.712Z,39200.00
2018-07-30T11:28:59.762Z,38752.00
2018-07-30T11:29:59.786Z,39872.00
2018-07-30T11:30:59.840Z,38944.00
2018-07-30T11:31:59.888Z,39072.00
2018-07-30T11:32:59.937Z,38560.00
2018-07-30T11:33:59.979Z,40416.00
2018-07-30T11:35:00.038Z,40480.00
2018-07-30T11:36:00.096Z,41408.00
2018-07-30T11:37:00.137Z,38880.00
2018-07-30T11:38:00.193Z,33152.00
2018-07-30T11:39:00.238Z,35360.00
2018-07-30T11:40:00.326Z,30688.00
2018-07-30T11:41:00.379Z,24576.00
2018-07-30T11:42:00.388Z,17696.00
2018-07-30T11:43:00.494Z,16768.00
2018-07-30T11:44:00.486Z,15444.00
2018-07-30T11:45:00.539Z,15164.00
2018-07-30T11:46:00.587Z,15904.00
2018-07-30T11:47:00.656Z,17408.00
2018-07-30T11:48:00.694Z,19232.00
2018-07-30T11:49:00.966Z,19296.00
2018-07-30T11:50:00.788Z,16704.00
2018-07-30T11:51:00.836Z,14976.00
2018-07-30T11:52:00.891Z,14212.00
2018-07-30T11:53:00.939Z,13856.00
2018-07-30T11:54:01.310Z,13756.00
2018-07-30T11:55:01.256Z,13784.00
2018-07-30T11:56:01.101Z,13940.00
2018-07-30T11:57:01.146Z,14192.00
2018-07-30T11:58:01.184Z,14568.00
2018-07-30T11:59:01.244Z,14876.00
2018-07-30T12:00:01.296Z,15140.00
2018-07-30T12:01:01.346Z,15460.00
2018-07-30T12:02:01.369Z,15844.00
2018-07-30T12:03:01.423Z,17248.00
2018-07-30T12:04:01.473Z,17984.00
2018-07-30T12:05:01.549Z,18496.00
2018-07-30T12:06:01.793Z,20128.00
2018-07-30T12:07:01.611Z,22560.00
2018-07-30T12:08:01.683Z,25248.00
2018-07-30T12:09:01.729Z,25856.00
2018-07-30T12:10:01.956Z,32768.00
2018-07-30T12:11:01.852Z,38528.00
2018-07-30T12:12:01.874Z,44384.00
2018-07-30T12:13:01.912Z,48032.00
2018-07-30T12:14:01.967Z,47936.00
2018-07-30T12:15:02.039Z,48736.00
2018-07-30T12:16:02.050Z,51488.00
2018-07-30T12:17:02.311Z,50048.00
2018-07-30T12:18:02.199Z,50048.00
2018-07-30T12:19:02.207Z,49952.00
2018-07-30T12:20:02.311Z,52896.00
2018-07-30T12:21:02.317Z,49920.00
2018-07-30T12:23:02.473Z,57120.00
2018-07-30T12:24:02.446Z,58112.00
2018-07-30T12:25:02.527Z,58400.00
2018-07-30T12:26:02.564Z,55008.00
2018-07-30T12:27:02.619Z,60960.00
2018-07-30T12:28:02.662Z,63872.00
2018-07-30T12:29:02.739Z,63616.00
2018-07-30T12:30:02.937Z,64576.00
2018-07-30T12:31:02.809Z,68224.00
2018-07-30T12:32:02.864Z,67744.00
2018-07-30T12:33:02.916Z,67392.00
2018-07-30T12:34:03.022Z,68448.00
2018-07-30T12:35:03.050Z,64736.00
2018-07-30T12:36:03.281Z,47328.00
2018-07-30T12:37:03.186Z,48544.00
2018-07-30T12:38:03.213Z,62720.00
2018-07-30T12:39:03.459Z,58784.00
2018-07-30T12:40:03.303Z,67776.00
2018-07-30T12:41:03.392Z,66432.00
2018-07-30T12:42:03.406Z,35104.00
2018-07-30T12:43:03.528Z,30464.00
2018-07-30T12:44:03.540Z,26144.00
2018-07-30T12:45:03.613Z,58784.00
2018-07-30T12:46:03.626Z,26368.00
2018-07-30T12:47:03.681Z,68768.00
2018-07-30T12:48:03.736Z,73728.00
2018-07-30T12:49:03.808Z,67776.00
2018-07-30T12:50:03.838Z,77472.00
2018-07-30T12:51:03.947Z,77856.00
2018-07-30T12:52:03.978Z,78464.00
2018-07-30T12:53:04.065Z,75456.00
2018-07-30T12:54:04.071Z,70624.00
2018-07-30T12:55:04.323Z,77120.00
2018-07-30T12:56:05.902Z,70688.00
2018-07-30T12:57:04.239Z,59584.00
2018-07-30T12:58:04.299Z,29344.00